Time;durP1;ratioP1;P1;durP2;ratioP2;P2;SDS_P1;SDS_P2;PMS_P1;PMS_P2;Temp;Humidity;BMP_temperature;BMP_pressure;BME280_temperature;BME280_humidity;BME280_pressure;Samples;Min_cycle;Max_cycle;Signal;HPM_P1;HPM_P2
2023/11/18 00:02:24;;;;;;;1256.50;922.47;;;4.10;99.90;;;;;;6155854;23;20441;-77
2023/11/18 00:04:51;;;;;;;1243.23;947.27;;;4.10;99.90;;;;;;6155594;23;20413;-77
2023/11/18 00:07:18;;;;;;;1246.07;945.80;;;4.10;99.90;;;;;;6155794;23;20504;-77
2023/11/18 00:09:45;;;;;;;1249.03;955.90;;;4.10;99.90;;;;;;6155141;23;20980;-78
2023/11/18 00:12:13;;;;;;;1249.93;952.53;;;4.10;99.90;;;;;;6155693;23;20460;-78
2023/11/18 00:14:42;;;;;;;1251.13;960.10;;;4.10;99.90;;;;;;6155303;23;20412;-78
2023/11/18 00:17:09;;;;;;;1244.57;953.67;;;4.10;99.90;;;;;;6155647;23;20440;-78
2023/11/18 00:19:36;;;;;;;1244.40;964.20;;;4.10;99.90;;;;;;6155323;23;20441;-78
2023/11/18 00:22:04;;;;;;;1241.03;945.13;;;4.10;99.90;;;;;;6155328;23;20971;-77
2023/11/18 00:24:34;;;;;;;1254.40;954.67;;;4.10;99.90;;;;;;6155517;23;20412;-77
2023/11/18 00:27:05;;;;;;;1240.23;940.40;;;4.10;99.90;;;;;;6155651;23;20462;-77
2023/11/18 00:29:33;;;;;;;1242.97;946.43;;;4.10;99.90;;;;;;6155352;23;20932;-77
2023/11/18 00:32:02;;;;;;;1237.60;939.27;;;4.10;99.90;;;;;;6155412;23;20426;-77
2023/11/18 00:34:29;;;;;;;1239.30;942.67;;;4.10;99.90;;;;;;6155488;23;20472;-77
2023/11/18 00:36:57;;;;;;;1218.77;939.50;;;4.10;99.90;;;;;;6155533;23;20755;-77
2023/11/18 00:39:24;;;;;;;1231.27;945.80;;;4.10;99.90;;;;;;6155365;23;20439;-77
2023/11/18 00:41:51;;;;;;;1225.50;938.57;;;4.10;99.90;;;;;;6155419;23;20491;-77
2023/11/18 00:44:18;;;;;;;1234.17;932.90;;;4.10;99.90;;;;;;6154941;23;20494;-77
2023/11/18 00:46:45;;;;;;;1222.97;925.93;;;4.00;99.90;;;;;;6155388;23;20802;-77
2023/11/18 00:49:13;;;;;;;1219.37;933.10;;;4.00;99.90;;;;;;6155125;23;20757;-77
2023/11/18 00:51:41;;;;;;;1208.87;925.53;;;4.00;99.90;;;;;;6155410;23;20439;-77
2023/11/18 00:54:09;;;;;;;1203.13;929.80;;;4.00;99.90;;;;;;6154988;23;20410;-77
2023/11/18 00:56:36;;;;;;;1203.07;942.60;;;3.90;99.90;;;;;;6154963;23;20452;-77
2023/11/18 00:59:03;;;;;;;1210.90;923.57;;;3.90;99.90;;;;;;6154735;23;20452;-77
2023/11/18 01:01:31;;;;;;;1210.00;914.33;;;3.90;99.90;;;;;;6155209;23;20412;-77
2023/11/18 01:03:59;;;;;;;1192.53;922.07;;;3.90;99.90;;;;;;6155226;23;20445;-77
2023/11/18 01:06:27;;;;;;;1204.93;924.53;;;4.00;99.90;;;;;;6154949;23;20942;-77
2023/11/18 01:08:54;;;;;;;1199.60;914.93;;;4.00;99.90;;;;;;6154684;23;20518;-77
2023/11/18 01:11:22;;;;;;;1206.17;926.50;;;4.00;99.90;;;;;;6155511;23;20500;-77
2023/11/18 01:13:49;;;;;;;1202.93;919.60;;;4.00;99.90;;;;;;6154840;23;20484;-77
2023/11/18 01:16:15;;;;;;;1213.50;926.50;;;4.00;99.90;;;;;;6154727;23;20984;-77
2023/11/18 01:18:42;;;;;;;1222.30;900.30;;;4.00;99.90;;;;;;6155041;23;20449;-77
2023/11/18 01:21:09;;;;;;;1207.83;891.63;;;4.00;99.90;;;;;;6154808;23;20472;-76
2023/11/18 01:23:38;;;;;;;1227.93;893.40;;;4.00;99.90;;;;;;6154582;23;20451;-77
2023/11/18 01:26:06;;;;;;;1215.47;885.97;;;4.10;99.90;;;;;;6154969;23;20413;-77
2023/11/18 01:28:36;;;;;;;1229.27;882.07;;;4.10;99.90;;;;;;6154829;23;20439;-77
2023/11/18 01:31:03;;;;;;;1229.67;925.37;;;4.10;99.90;;;;;;6155231;23;20468;-77
2023/11/18 01:33:32;;;;;;;1239.33;925.87;;;4.20;99.90;;;;;;6155165;23;20441;-77
2023/11/18 01:35:59;;;;;;;1255.60;923.97;;;4.10;99.90;;;;;;6154795;23;20914;-77
2023/11/18 01:38:26;;;;;;;1224.73;924.50;;;4.20;99.90;;;;;;6154519;23;20410;-77
2023/11/18 01:40:54;;;;;;;1239.70;916.93;;;4.20;99.90;;;;;;6155096;23;20420;-77
2023/11/18 01:43:22;;;;;;;1244.73;917.67;;;4.20;99.90;;;;;;6154729;23;20412;-77
2023/11/18 01:45:49;;;;;;;1230.10;883.17;;;4.20;99.90;;;;;;6154983;23;20410;-77
2023/11/18 01:48:17;;;;;;;1223.67;883.47;;;4.20;99.90;;;;;;6154974;23;20960;-77
2023/11/18 01:50:47;;;;;;;1247.60;882.80;;;4.20;99.90;;;;;;6155102;23;20445;-77
2023/11/18 01:53:15;;;;;;;1241.83;905.10;;;4.20;99.90;;;;;;6164484;23;20540;-77
2023/11/18 01:55:42;;;;;;;1281.33;933.47;;;4.20;99.90;;;;;;6154497;23;20441;-77
2023/11/18 01:58:10;;;;;;;1269.93;941.70;;;4.20;99.90;;;;;;6155083;23;20500;-77
2023/11/18 02:00:39;;;;;;;1262.10;931.83;;;4.30;99.90;;;;;;6154974;23;20408;-77
2023/11/18 02:03:06;;;;;;;1262.33;924.97;;;4.30;99.90;;;;;;6154568;23;20973;-77
2023/11/18 02:05:34;;;;;;;1253.20;911.27;;;4.30;99.90;;;;;;6154810;23;20495;-77
2023/11/18 02:08:04;;;;;;;1275.43;930.70;;;4.30;99.90;;;;;;6154577;23;20413;-77
2023/11/18 02:10:31;;;;;;;1258.53;931.67;;;4.30;99.90;;;;;;6154779;23;20603;-77
2023/11/18 02:13:07;;;;;;;1253.20;919.63;;;4.40;99.90;;;;;;6154961;23;20436;-77
2023/11/18 02:15:36;;;;;;;1269.07;929.47;;;4.40;99.90;;;;;;6154941;23;20395;-77
2023/11/18 02:18:09;;;;;;;1240.87;935.67;;;4.40;99.90;;;;;;6154487;23;20499;-77
2023/11/18 02:20:36;;;;;;;1242.90;934.40;;;4.40;99.90;;;;;;6154979;23;20395;-77
2023/11/18 02:23:03;;;;;;;1264.57;928.07;;;4.50;99.90;;;;;;6154994;23;20410;-77
2023/11/18 02:25:34;;;;;;;1265.60;930.20;;;4.50;99.90;;;;;;6154455;23;20416;-77
2023/11/18 02:28:02;;;;;;;1259.10;933.03;;;4.50;99.90;;;;;;6154625;23;20738;-77
2023/11/18 02:30:30;;;;;;;1276.60;928.07;;;4.50;99.90;;;;;;6154665;23;20467;-77
2023/11/18 02:33:02;;;;;;;1272.30;938.60;;;4.50;99.90;;;;;;6154913;23;20410;-77
2023/11/18 02:35:31;;;;;;;1275.73;930.83;;;4.50;99.90;;;;;;6154927;23;20433;-77
2023/11/18 02:38:02;;;;;;;1263.50;928.90;;;4.50;99.90;;;;;;6156015;23;20412;-77
2023/11/18 02:40:33;;;;;;;1266.33;931.63;;;4.50;99.90;;;;;;6156432;23;20390;-77
2023/11/18 02:43:04;;;;;;;1263.37;935.23;;;4.50;99.90;;;;;;6156458;23;20402;-77
2023/11/18 02:45:33;;;;;;;1280.07;944.57;;;4.50;99.90;;;;;;6156039;23;20931;-77
2023/11/18 02:48:00;;;;;;;1274.10;948.30;;;4.50;99.90;;;;;;6156693;23;20782;-77
2023/11/18 02:50:29;;;;;;;1275.90;935.00;;;4.50;99.90;;;;;;6155850;23;20471;-77
2023/11/18 02:52:56;;;;;;;1253.57;939.67;;;4.50;99.90;;;;;;6156004;23;20412;-77
2023/11/18 02:55:24;;;;;;;1235.83;949.83;;;4.50;99.90;;;;;;6155845;23;20488;-77
2023/11/18 02:57:52;;;;;;;1254.17;940.57;;;4.50;99.90;;;;;;6155879;23;20429;-77
2023/11/18 03:00:22;;;;;;;1239.43;943.97;;;4.60;99.90;;;;;;6155847;23;20408;-77
2023/11/18 03:02:51;;;;;;;1255.67;928.50;;;4.60;99.90;;;;;;6156426;23;20416;-77
2023/11/18 03:05:18;;;;;;;1250.83;928.57;;;4.60;99.90;;;;;;6156309;23;20415;-77
2023/11/18 03:07:49;;;;;;;1242.70;898.57;;;4.60;99.90;;;;;;6156344;23;20417;-77
2023/11/18 03:10:20;;;;;;;1253.47;896.30;;;4.60;99.90;;;;;;6156119;23;20801;-77
2023/11/18 03:12:48;;;;;;;1261.73;906.40;;;4.60;99.90;;;;;;6156401;23;20484;-77
2023/11/18 03:15:16;;;;;;;1227.77;909.03;;;4.60;99.90;;;;;;6155864;23;20443;-77
2023/11/18 03:17:45;;;;;;;1254.10;927.57;;;4.60;99.90;;;;;;6156204;23;20492;-76
2023/11/18 03:20:16;;;;;;;1271.67;931.63;;;4.60;99.90;;;;;;6155733;23;20412;-77
2023/11/18 03:22:44;;;;;;;1246.77;934.03;;;4.60;99.90;;;;;;6155772;23;20394;-76
2023/11/18 03:25:11;;;;;;;1235.37;910.60;;;4.60;99.90;;;;;;6156221;23;20409;-76
2023/11/18 03:27:38;;;;;;;1247.23;913.00;;;4.60;99.90;;;;;;6156141;23;20738;-76
2023/11/18 03:30:07;;;;;;;1244.80;926.40;;;4.50;99.90;;;;;;6155628;23;20447;-76
2023/11/18 03:32:35;;;;;;;1211.53;905.07;;;4.60;99.90;;;;;;6156160;23;20775;-77
2023/11/18 03:35:04;;;;;;;1222.90;903.87;;;4.50;99.90;;;;;;6155665;23;20420;-77
2023/11/18 03:37:31;;;;;;;1228.80;911.57;;;4.60;99.90;;;;;;6155601;23;20962;-76
2023/11/18 03:39:58;;;;;;;1220.33;911.07;;;4.60;99.90;;;;;;6155903;23;20405;-76
2023/11/18 03:42:25;;;;;;;1210.93;872.77;;;4.60;99.90;;;;;;6155558;23;20901;-76
2023/11/18 03:44:51;;;;;;;1240.00;868.97;;;4.60;99.90;;;;;;6155476;23;20449;-76
2023/11/18 03:47:18;;;;;;;1220.60;858.60;;;4.50;99.90;;;;;;6155722;23;20433;-76
2023/11/18 03:49:45;;;;;;;1224.20;857.73;;;4.50;99.90;;;;;;6155524;23;20465;-76
2023/11/18 03:52:13;;;;;;;1220.97;854.90;;;4.50;99.90;;;;;;6155867;23;20502;-76
2023/11/18 03:54:41;;;;;;;1229.00;901.47;;;4.50;99.90;;;;;;6155637;23;20409;-76
2023/11/18 03:57:08;;;;;;;1232.43;908.57;;;4.50;99.90;;;;;;6155519;23;20402;-76
2023/11/18 03:59:35;;;;;;;1223.57;899.17;;;4.50;99.90;;;;;;6155335;23;20441;-76
2023/11/18 04:02:02;;;;;;;1221.60;915.37;;;4.50;99.90;;;;;;6155454;23;20497;-76
2023/11/18 04:04:29;;;;;;;1228.63;923.37;;;4.50;99.90;;;;;;6155633;23;20470;-76
2023/11/18 04:06:57;;;;;;;1209.47;918.03;;;4.50;99.90;;;;;;6155807;23;20417;-77
2023/11/18 04:09:26;;;;;;;1220.60;910.10;;;4.50;99.90;;;;;;6154534;23;20495;-77
2023/11/18 04:11:53;;;;;;;1224.53;905.43;;;4.50;99.90;;;;;;6155710;23;20893;-77
2023/11/18 04:14:21;;;;;;;1239.80;904.70;;;4.50;99.90;;;;;;6155499;23;20461;-77
2023/11/18 04:16:48;;;;;;;1221.37;897.77;;;4.40;99.90;;;;;;6155171;23;20447;-77
2023/11/18 04:19:15;;;;;;;1212.60;899.20;;;4.50;99.90;;;;;;6155330;23;20412;-76
2023/11/18 04:21:43;;;;;;;1241.93;902.33;;;4.50;99.90;;;;;;6155125;23;20969;-76
2023/11/18 04:24:10;;;;;;;1241.63;912.77;;;4.50;99.90;;;;;;6155048;23;20417;-76
2023/11/18 04:26:38;;;;;;;1204.83;916.67;;;4.50;99.90;;;;;;6155086;23;20445;-76
2023/11/18 04:29:05;;;;;;;1198.87;909.23;;;4.40;99.90;;;;;;6155260;23;20418;-76
2023/11/18 04:31:34;;;;;;;1220.67;912.07;;;4.50;99.90;;;;;;6155317;23;20832;-76
2023/11/18 04:34:01;;;;;;;1214.37;906.43;;;4.50;99.90;;;;;;6154868;23;20460;-76
2023/11/18 04:36:28;;;;;;;1235.80;911.97;;;4.50;99.90;;;;;;6155333;23;20758;-76
2023/11/18 04:38:55;;;;;;;1223.17;914.53;;;4.50;99.90;;;;;;6154809;23;20413;-76
2023/11/18 04:41:23;;;;;;;1226.10;912.63;;;4.50;99.90;;;;;;6155479;23;20702;-76
2023/11/18 04:43:51;;;;;;;1208.00;904.07;;;4.50;99.90;;;;;;6155318;23;20418;-76
2023/11/18 04:46:19;;;;;;;1201.13;919.70;;;4.50;99.90;;;;;;6154884;23;20420;-76
2023/11/18 04:48:46;;;;;;;1198.07;923.17;;;4.50;99.90;;;;;;6154627;23;20428;-76
2023/11/18 04:51:13;;;;;;;1195.57;929.27;;;4.50;99.90;;;;;;6155232;23;20528;-76
2023/11/18 04:53:40;;;;;;;1204.10;928.73;;;4.50;99.90;;;;;;6155272;23;20741;-76
2023/11/18 04:56:09;;;;;;;1207.77;944.80;;;4.40;99.90;;;;;;6155032;23;20500;-76
2023/11/18 04:58:37;;;;;;;1217.47;945.73;;;4.40;99.90;;;;;;6154473;23;20931;-76
2023/11/18 05:01:06;;;;;;;1194.57;942.27;;;4.40;99.90;;;;;;6155137;23;20488;-75
2023/11/18 05:03:33;;;;;;;1207.47;944.70;;;4.30;99.90;;;;;;6155186;23;20743;-75
2023/11/18 05:06:00;;;;;;;1209.73;947.27;;;4.30;99.90;;;;;;6155070;23;20890;-75
2023/11/18 05:08:27;;;;;;;1212.90;950.07;;;4.30;99.90;;;;;;6154630;23;20944;-75
2023/11/18 05:10:54;;;;;;;1208.97;936.53;;;4.20;99.90;;;;;;6154639;23;20514;-75
2023/11/18 05:13:21;;;;;;;1214.30;955.40;;;4.20;99.90;;;;;;6155250;23;20421;-75
2023/11/18 05:15:49;;;;;;;1230.63;959.50;;;4.20;99.90;;;;;;6154979;23;20440;-75
2023/11/18 05:18:18;;;;;;;1202.33;940.33;;;4.20;99.90;;;;;;6154594;23;20413;-75
2023/11/18 05:20:46;;;;;;;1217.17;935.80;;;4.20;99.90;;;;;;6155136;23;20492;-75
2023/11/18 05:23:13;;;;;;;1213.07;934.57;;;4.30;99.90;;;;;;6154845;23;20920;-75
2023/11/18 05:25:41;;;;;;;1215.07;931.57;;;4.20;99.90;;;;;;6154785;23;20451;-75
2023/11/18 05:28:09;;;;;;;1198.13;947.27;;;4.30;99.90;;;;;;6154630;23;20412;-75
2023/11/18 05:30:36;;;;;;;1210.33;941.43;;;4.30;99.90;;;;;;6155013;23;20437;-75
2023/11/18 05:33:04;;;;;;;1206.53;940.50;;;4.30;99.90;;;;;;6155183;23;20531;-75
2023/11/18 05:35:34;;;;;;;1199.43;958.10;;;4.30;99.90;;;;;;6155022;23;20500;-75
2023/11/18 05:38:02;;;;;;;1200.97;956.80;;;4.30;99.90;;;;;;6154936;23;20503;-75
2023/11/18 05:40:30;;;;;;;1169.93;939.90;;;4.30;99.90;;;;;;6154431;23;20413;-75
2023/11/18 05:42:58;;;;;;;1188.37;924.77;;;4.30;99.90;;;;;;6155051;23;20476;-75
2023/11/18 05:45:31;;;;;;;1192.07;927.00;;;4.30;99.90;;;;;;6155003;23;20889;-75
2023/11/18 05:47:58;;;;;;;1183.20;918.90;;;4.30;99.90;;;;;;6154728;23;20480;-75
2023/11/18 05:50:26;;;;;;;1200.13;896.53;;;4.40;99.90;;;;;;6154806;23;20522;-75
2023/11/18 05:52:54;;;;;;;1209.97;920.13;;;4.40;99.90;;;;;;6155290;23;20416;-75
2023/11/18 05:55:21;;;;;;;1175.47;907.90;;;4.40;99.90;;;;;;6154375;23;20455;-75
2023/11/18 05:57:48;;;;;;;1181.20;905.10;;;4.40;99.90;;;;;;6154400;23;20922;-76
2023/11/18 06:00:18;;;;;;;1192.13;890.60;;;4.40;99.90;;;;;;6154069;23;20493;-75
2023/11/18 06:02:46;;;;;;;1175.20;903.23;;;4.40;99.90;;;;;;6154119;23;20441;-75
2023/11/18 06:05:14;;;;;;;1171.03;890.13;;;4.40;99.90;;;;;;6154190;23;20420;-75
2023/11/18 06:07:43;;;;;;;1175.67;881.70;;;4.40;99.90;;;;;;6153267;23;20413;-75
2023/11/18 06:10:12;;;;;;;1171.50;890.00;;;4.40;99.90;;;;;;6155640;23;20472;-75
2023/11/18 06:12:40;;;;;;;1179.80;891.60;;;4.40;99.90;;;;;;6156780;23;20420;-75
2023/11/18 06:15:11;;;;;;;1159.03;884.73;;;4.40;99.90;;;;;;6156332;23;20416;-75
2023/11/18 06:17:41;;;;;;;1171.37;887.33;;;4.40;99.90;;;;;;6156204;23;20400;-75
2023/11/18 06:20:10;;;;;;;1170.50;872.50;;;4.40;99.90;;;;;;6155730;23;20889;-75
2023/11/18 06:22:37;;;;;;;1172.97;870.17;;;4.50;99.90;;;;;;6156145;23;20423;-75
2023/11/18 06:25:07;;;;;;;1167.40;879.07;;;4.50;99.90;;;;;;6156142;23;20410;-75
2023/11/18 06:27:37;;;;;;;1166.37;873.30;;;4.50;99.90;;;;;;6156647;23;20511;-75
2023/11/18 06:30:06;;;;;;;1169.40;900.47;;;4.50;99.90;;;;;;6155946;23;20500;-75
2023/11/18 06:32:33;;;;;;;1163.33;918.77;;;4.50;99.90;;;;;;6156388;23;20496;-75
2023/11/18 06:35:01;;;;;;;1172.47;919.90;;;4.50;99.90;;;;;;6156199;23;20444;-75
2023/11/18 06:37:33;;;;;;;1166.73;956.43;;;4.50;99.90;;;;;;6156141;23;20496;-75
2023/11/18 06:40:00;;;;;;;1176.67;950.33;;;4.50;99.90;;;;;;6155979;23;20453;-75
2023/11/18 06:42:27;;;;;;;1166.50;955.70;;;4.50;99.90;;;;;;6156439;23;20715;-75
2023/11/18 06:44:55;;;;;;;1179.30;955.80;;;4.50;99.90;;;;;;6156351;23;20488;-75
2023/11/18 06:47:22;;;;;;;1182.20;950.57;;;4.50;99.90;;;;;;6156182;23;20410;-75
2023/11/18 06:49:52;;;;;;;1146.10;935.37;;;4.50;99.90;;;;;;6155629;23;20422;-75
2023/11/18 06:52:19;;;;;;;1162.40;928.77;;;4.50;99.90;;;;;;6155841;23;20977;-75
2023/11/18 06:54:46;;;;;;;1157.57;937.43;;;4.50;99.90;;;;;;6165456;23;20483;-75
2023/11/18 06:57:13;;;;;;;1159.70;920.17;;;4.60;99.90;;;;;;6155928;23;20863;-75
2023/11/18 06:59:40;;;;;;;1169.70;935.77;;;4.60;99.90;;;;;;6155707;23;20496;-75
2023/11/18 07:02:10;;;;;;;1168.73;940.10;;;4.60;99.90;;;;;;6155793;23;20480;-75
2023/11/18 07:04:38;;;;;;;1151.67;930.20;;;4.60;99.90;;;;;;6156631;23;20738;-75
2023/11/18 07:07:08;;;;;;;1155.97;923.27;;;4.60;99.90;;;;;;6155961;23;20782;-75
2023/11/18 07:09:36;;;;;;;1152.30;920.33;;;4.70;99.90;;;;;;6155687;23;20413;-75
2023/11/18 07:12:04;;;;;;;1157.70;943.80;;;4.70;99.90;;;;;;6155692;23;20985;-75
2023/11/18 07:14:32;;;;;;;1143.70;927.33;;;4.70;99.90;;;;;;6154465;23;20420;-75
2023/11/18 07:17:00;;;;;;;1140.20;930.77;;;4.70;99.90;;;;;;6155904;23;20739;-75
2023/11/18 07:19:29;;;;;;;1140.23;925.10;;;4.70;99.90;;;;;;6165235;23;20782;-75
2023/11/18 07:21:56;;;;;;;1116.80;920.10;;;4.80;99.90;;;;;;6164785;23;20416;-75
2023/11/18 07:24:23;;;;;;;1114.60;934.40;;;4.80;99.90;;;;;;6155320;23;20414;-75
2023/11/18 07:26:51;;;;;;;1114.37;927.03;;;4.80;99.90;;;;;;6153899;23;20448;-75
2023/11/18 07:29:19;;;;;;;1129.77;934.80;;;4.80;99.90;;;;;;6155429;23;20504;-75
2023/11/18 07:31:46;;;;;;;1138.87;937.93;;;4.80;99.90;;;;;;6165446;23;20437;-75
2023/11/18 07:34:13;;;;;;;1129.73;932.30;;;4.90;99.90;;;;;;6155305;23;20776;-75
2023/11/18 07:36:45;;;;;;;1131.97;932.77;;;4.90;99.90;;;;;;6164729;23;20759;-75
2023/11/18 07:39:15;;;;;;;1130.40;933.57;;;5.00;99.90;;;;;;6155328;23;20403;-75
2023/11/18 07:41:42;;;;;;;1115.83;924.03;;;4.90;99.90;;;;;;6155458;23;20409;-75
2023/11/18 07:44:12;;;;;;;1116.70;930.20;;;5.00;99.90;;;;;;6155331;23;20488;-75
2023/11/18 07:46:42;;;;;;;1110.97;934.93;;;5.10;99.90;;;;;;6155296;23;20743;-75
2023/11/18 07:49:09;;;;;;;1092.03;925.57;;;5.10;99.90;;;;;;6154855;23;20500;-75
2023/11/18 07:51:36;;;;;;;1093.17;928.67;;;5.10;99.90;;;;;;6154638;23;20437;-75
2023/11/18 07:54:05;;;;;;;1102.00;925.77;;;5.20;99.90;;;;;;6154865;23;20410;-74
2023/11/18 07:56:32;;;;;;;1089.57;931.43;;;5.20;99.90;;;;;;6154578;23;20452;-75
2023/11/18 07:58:59;;;;;;;1088.77;923.97;;;5.30;99.90;;;;;;6154417;23;20464;-74
2023/11/18 08:01:26;;;;;;;1068.67;915.47;;;5.30;99.90;;;;;;6155284;23;20444;-74
2023/11/18 08:03:54;;;;;;;1074.50;909.67;;;5.40;99.90;;;;;;6165552;23;20780;-74
2023/11/18 08:06:21;;;;;;;1061.10;915.33;;;5.40;99.90;;;;;;6155256;23;20949;-74
2023/11/18 08:08:53;;;;;;;1051.73;922.73;;;5.40;99.90;;;;;;6155564;23;20726;-72
2023/11/18 08:11:21;;;;;;;1054.10;916.67;;;5.50;99.90;;;;;;6156338;23;20472;-72
2023/11/18 08:13:48;;;;;;;1047.90;914.27;;;5.50;99.90;;;;;;6156137;23;20755;-72
2023/11/18 08:16:15;;;;;;;1044.33;924.20;;;5.60;99.90;;;;;;6156033;23;20777;-72
2023/11/18 08:18:42;;;;;;;1021.90;899.78;;;5.60;99.90;;;;;;6154941;23;20956;-72
2023/11/18 08:21:09;;;;;;;1007.67;897.40;;;5.60;99.90;;;;;;6155696;23;20249;-72
2023/11/18 08:23:37;;;;;;;991.83;882.70;;;5.70;99.90;;;;;;6156415;23;20783;-72
2023/11/18 08:26:05;;;;;;;982.60;873.27;;;5.80;99.90;;;;;;6155853;23;20484;-72
2023/11/18 08:28:33;;;;;;;987.33;879.40;;;5.80;99.90;;;;;;6154221;23;20410;-72
2023/11/18 08:31:00;;;;;;;1006.45;900.15;;;5.80;99.90;;;;;;6153358;23;20496;-72
2023/11/18 08:33:28;;;;;;;1017.25;915.70;;;5.90;99.90;;;;;;6154178;23;20413;-73
2023/11/18 08:35:56;;;;;;;1014.27;916.63;;;6.00;99.90;;;;;;6156255;23;20175;-72
2023/11/18 08:38:24;;;;;;;1003.60;906.13;;;6.00;99.90;;;;;;6154670;23;20413;-72
2023/11/18 08:40:51;;;;;;;990.50;893.50;;;6.00;99.90;;;;;;6155560;23;20410;-73
2023/11/18 08:43:18;;;;;;;988.47;895.30;;;6.10;99.90;;;;;;6155804;23;20410;-75
2023/11/18 08:45:47;;;;;;;979.30;886.97;;;6.10;99.90;;;;;;6155728;23;20416;-75
2023/11/18 08:48:16;;;;;;;969.23;879.03;;;6.20;99.90;;;;;;6154506;23;20420;-76
2023/11/18 08:50:43;;;;;;;957.90;869.67;;;6.10;99.90;;;;;;6162964;23;20444;-75
2023/11/18 08:53:11;;;;;;;974.05;888.85;;;6.20;99.90;;;;;;6164269;23;20412;-75
2023/11/18 08:55:50;;;;;;;964.27;887.43;;;6.20;99.90;;;;;;6155644;23;20231;-75
2023/11/18 08:58:19;;;;;;;944.83;870.30;;;6.20;99.90;;;;;;6155872;23;20942;-75
2023/11/18 09:00:52;;;;;;;932.80;861.60;;;6.20;99.90;;;;;;6155715;23;20753;-76
2023/11/18 09:03:25;;;;;;;934.53;864.00;;;6.20;99.90;;;;;;6156522;23;20482;-76
2023/11/18 09:05:59;;;;;;;931.93;861.70;;;6.20;99.90;;;;;;6156331;23;20393;-75
2023/11/18 09:08:29;;;;;;;924.83;855.40;;;6.20;99.90;;;;;;6155539;23;20396;-74
2023/11/18 09:10:56;;;;;;;928.90;860.10;;;6.20;99.90;;;;;;6155395;23;20433;-73
2023/11/18 09:13:28;;;;;;;920.70;852.40;;;6.20;99.90;;;;;;6155490;23;20410;-74
2023/11/18 09:15:57;;;;;;;934.53;864.10;;;6.20;99.90;;;;;;6155245;23;20398;-73
2023/11/18 09:18:25;;;;;;;933.67;863.87;;;6.20;99.90;;;;;;6155075;23;20416;-73
2023/11/18 09:20:54;;;;;;;922.30;854.43;;;6.20;99.90;;;;;;6154811;23;20498;-73
2023/11/18 09:23:23;;;;;;;920.77;852.77;;;6.30;99.90;;;;;;6154992;23;20409;-73
2023/11/18 09:25:50;;;;;;;916.03;848.27;;;6.30;99.90;;;;;;6154007;23;20422;-73
2023/11/18 09:28:18;;;;;;;922.97;855.97;;;6.40;99.90;;;;;;6154163;23;20924;-73
2023/11/18 09:30:50;;;;;;;922.40;854.90;;;6.40;99.90;;;;;;6153768;23;20497;-73
2023/11/18 09:33:32;;;;;;;921.43;854.67;;;6.50;99.90;;;;;;6154093;23;20422;-73
2023/11/18 09:36:00;;;;;;;927.33;861.37;;;6.50;99.90;;;;;;6153882;23;20414;-73
2023/11/18 09:38:31;;;;;;;925.27;859.47;;;6.60;99.90;;;;;;6154315;23;20813;-73
2023/11/18 09:41:02;;;;;;;921.70;856.67;;;6.60;99.90;;;;;;6154568;23;20394;-73
2023/11/18 09:43:32;;;;;;;910.20;846.40;;;6.70;99.90;;;;;;6154675;23;20855;-73
2023/11/18 09:46:05;;;;;;;909.77;847.27;;;6.80;99.90;;;;;;6156398;23;20402;-73
2023/11/18 09:48:40;;;;;;;903.93;840.63;;;6.80;99.90;;;;;;6156238;23;20481;-73
2023/11/18 09:51:09;;;;;;;911.87;848.47;;;6.90;99.90;;;;;;6156396;23;20393;-73
2023/11/18 09:53:40;;;;;;;910.57;847.87;;;6.90;99.90;;;;;;6156454;23;20438;-73
2023/11/18 09:56:18;;;;;;;921.40;857.90;;;7.00;99.90;;;;;;6156122;23;20422;-73
2023/11/18 09:58:56;;;;;;;912.07;849.07;;;7.00;99.90;;;;;;6154975;23;20881;-73
2023/11/18 10:01:32;;;;;;;910.30;849.30;;;7.10;99.90;;;;;;6155878;23;20391;-73
2023/11/18 10:04:06;;;;;;;908.03;848.07;;;7.10;99.90;;;;;;6155736;23;20403;-72
2023/11/18 10:06:36;;;;;;;903.70;843.93;;;7.10;99.90;;;;;;6156716;23;20398;-73
2023/11/18 10:09:15;;;;;;;883.57;825.77;;;7.10;99.90;;;;;;6155742;23;20899;-73
2023/11/18 10:11:43;;;;;;;881.50;824.67;;;7.20;99.90;;;;;;6155806;23;20465;-73
2023/11/18 10:14:10;;;;;;;885.10;828.20;;;7.20;99.90;;;;;;6155991;23;20493;-73
2023/11/18 10:16:38;;;;;;;886.07;829.10;;;7.20;99.90;;;;;;6155736;23;20449;-73
2023/11/18 10:19:08;;;;;;;890.63;833.80;;;7.20;99.90;;;;;;6155555;23;20410;-72
2023/11/18 10:21:39;;;;;;;898.93;841.63;;;7.20;99.90;;;;;;6155641;23;20421;-72
2023/11/18 10:24:14;;;;;;;890.90;835.03;;;7.20;99.90;;;;;;6156107;23;20403;-72
2023/11/18 10:26:41;;;;;;;889.67;832.67;;;7.20;99.90;;;;;;6155389;23;20478;-72
2023/11/18 10:29:12;;;;;;;884.00;827.40;;;7.20;99.90;;;;;;6155176;23;20495;-73
2023/11/18 10:31:44;;;;;;;882.33;826.40;;;7.20;99.90;;;;;;6156977;23;20846;-72
2023/11/18 10:34:15;;;;;;;912.25;851.05;;;7.20;99.90;;;;;;6155035;23;20412;-72
2023/11/18 10:36:43;;;;;;;906.47;847.72;;;7.30;99.90;;;;;;6155736;23;20462;-72
2023/11/18 10:39:16;;;;;;;869.67;816.30;;;7.30;99.90;;;;;;6156645;23;20174;-72
2023/11/18 10:41:47;;;;;;;876.60;822.20;;;7.40;99.90;;;;;;6156313;23;20432;-73
2023/11/18 10:44:18;;;;;;;874.63;820.20;;;7.40;99.90;;;;;;6156747;23;20396;-72
2023/11/18 10:46:53;;;;;;;883.80;829.10;;;7.50;99.90;;;;;;6156567;23;20544;-73
2023/11/18 10:49:22;;;;;;;879.80;825.30;;;7.50;99.90;;;;;;6156875;23;20396;-73
2023/11/18 10:51:51;;;;;;;862.40;809.27;;;7.50;99.90;;;;;;6156418;23;20530;-73
2023/11/18 10:54:19;;;;;;;879.83;826.23;;;7.50;99.90;;;;;;6156313;23;20498;-73
2023/11/18 10:56:49;;;;;;;886.03;831.67;;;7.50;99.90;;;;;;6155103;23;20452;-73
2023/11/18 10:59:18;;;;;;;878.60;824.73;;;7.50;99.90;;;;;;6155535;23;20417;-73
2023/11/18 11:01:48;;;;;;;890.70;836.57;;;7.50;99.90;;;;;;6155510;23;20408;-73
2023/11/18 11:04:16;;;;;;;902.03;846.77;;;7.50;99.90;;;;;;6155922;23;20717;-74
2023/11/18 11:06:52;;;;;;;902.60;845.30;;;7.50;99.90;;;;;;6156315;23;20412;-75
2023/11/18 11:09:20;;;;;;;909.57;850.50;;;7.50;99.90;;;;;;6156131;23;20395;-76
2023/11/18 11:11:49;;;;;;;907.60;847.07;;;7.50;99.90;;;;;;6155458;23;20828;-77
2023/11/18 11:14:18;;;;;;;935.73;869.27;;;7.50;99.90;;;;;;6155392;23;20765;-75
2023/11/18 11:16:50;;;;;;;929.97;861.00;;;7.60;99.90;;;;;;6155075;23;20500;-75
2023/11/18 11:19:26;;;;;;;934.53;861.87;;;7.60;99.90;;;;;;6155889;23;20399;-76
2023/11/18 11:22:02;;;;;;;925.43;853.77;;;7.70;99.90;;;;;;6155781;23;20504;-77
2023/11/18 11:24:50;;;;;;;924.67;851.90;;;7.70;99.90;;;;;;6156022;23;20480;-77
2023/11/18 11:27:29;;;;;;;919.37;849.17;;;7.70;99.90;;;;;;6156227;23;20448;-77
2023/11/18 11:30:10;;;;;;;910.80;840.50;;;7.80;99.90;;;;;;6155914;23;20405;-77
2023/11/18 11:32:47;;;;;;;919.17;847.90;;;7.80;99.90;;;;;;6155407;23;20429;-80
2023/11/18 11:35:21;;;;;;;919.70;846.30;;;7.90;99.90;;;;;;6156100;23;20685;-81
2023/11/18 11:37:50;;;;;;;919.90;846.93;;;7.90;99.90;;;;;;6156249;23;20398;-80
2023/11/18 11:40:22;;;;;;;935.07;860.13;;;7.90;99.90;;;;;;6156326;23;20412;-80
2023/11/18 11:42:55;;;;;;;937.13;861.97;;;7.90;99.90;;;;;;6156548;23;20400;-80
2023/11/18 11:45:28;;;;;;;933.83;859.73;;;8.00;99.90;;;;;;6155952;23;20398;-80
2023/11/18 11:48:13;;;;;;;941.83;866.90;;;7.90;99.90;;;;;;6156436;23;20720;-80
2023/11/18 11:50:48;;;;;;;937.07;862.20;;;8.00;99.90;;;;;;6156560;23;20451;-80
2023/11/18 11:53:22;;;;;;;931.43;857.70;;;8.00;99.90;;;;;;6156380;23;20805;-80
2023/11/18 11:55:53;;;;;;;927.83;854.13;;;8.00;99.90;;;;;;6156076;23;20506;-80
2023/11/18 11:58:32;;;;;;;938.57;862.80;;;8.00;99.90;;;;;;6155740;23;20432;-79
2023/11/18 12:01:02;;;;;;;934.53;859.33;;;8.10;99.90;;;;;;6156330;23;20417;-80
2023/11/18 12:03:35;;;;;;;929.70;855.07;;;8.10;99.90;;;;;;6156253;23;20415;-80
2023/11/18 12:06:07;;;;;;;933.83;858.60;;;8.10;99.90;;;;;;6155910;23;20397;-79
2023/11/18 12:08:37;;;;;;;932.10;857.57;;;8.10;99.90;;;;;;6154681;23;20452;-80
2023/11/18 12:11:09;;;;;;;934.67;861.27;;;8.10;99.90;;;;;;6155423;23;20728;-79
2023/11/18 12:13:39;;;;;;;943.40;870.90;;;8.10;99.90;;;;;;6154427;23;20472;-79
2023/11/18 12:16:10;;;;;;;946.10;872.47;;;8.00;99.90;;;;;;6154075;23;20900;-79
2023/11/18 12:18:37;;;;;;;941.67;867.67;;;8.00;99.90;;;;;;6154178;23;20480;-79
2023/11/18 12:21:04;;;;;;;915.33;835.72;;;8.00;99.90;;;;;;6153259;23;20447;-78